Time;durP1;ratioP1;P1;durP2;ratioP2;P2;SDS_P1;SDS_P2;PMS_P1;PMS_P2;Temp;Humidity;BMP_temperature;BMP_pressure;BME280_temperature;BME280_humidity;BME280_pressure;Samples;Min_cycle;Max_cycle;Signal;HPM_P1;HPM_P2
2021/11/15 00:02:07;;;;;;;133.30;60.28;;;;;;;4.49;86.85;101931.34;1721220;83;21076;-81
2021/11/15 00:04:34;;;;;;;135.75;60.03;;;;;;;4.50;86.83;101923.77;1717918;82;21115;-80
2021/11/15 00:07:01;;;;;;;129.78;55.88;;;;;;;4.51;86.83;101927.27;1700919;83;21003;-81
2021/11/15 00:09:28;;;;;;;124.70;58.98;;;;;;;4.51;86.83;101931.23;1721261;83;21613;-80
2021/11/15 00:11:54;;;;;;;126.97;57.50;;;;;;;4.50;86.84;101935.66;1721610;83;21050;-81
2021/11/15 00:14:20;;;;;;;123.65;55.70;;;;;;;4.50;86.82;101927.73;1722909;81;21302;-81
2021/11/15 00:16:46;;;;;;;120.75;53.78;;;;;;;4.48;86.83;101925.67;1692613;84;21062;-80
2021/11/15 00:19:12;;;;;;;121.67;54.00;;;;;;;4.48;86.86;101936.23;1692287;83;21479;-80
2021/11/15 00:21:38;;;;;;;117.53;52.65;;;;;;;4.49;86.86;101936.62;1692544;84;21034;-80
2021/11/15 00:24:04;;;;;;;122.92;53.10;;;;;;;4.48;86.86;101932.28;1697706;83;21094;-80
2021/11/15 00:26:31;;;;;;;122.05;55.55;;;;;;;4.49;86.86;101933.12;1717944;83;21322;-80
2021/11/15 00:28:57;;;;;;;117.53;51.02;;;;;;;4.48;86.87;101938.87;1714494;83;21030;-81
2021/11/15 00:31:24;;;;;;;127.78;56.48;;;;;;;4.46;86.87;101932.85;1693380;83;21612;-80
2021/11/15 00:33:51;;;;;;;126.30;58.63;;;;;;;4.46;86.88;101936.81;1708130;82;20995;-80
2021/11/15 00:36:17;;;;;;;116.28;51.75;;;;;;;4.47;86.90;101932.36;1692342;83;21118;-80
2021/11/15 00:38:44;;;;;;;115.67;54.23;;;;;;;4.49;86.92;101937.09;1703918;82;21168;-80
2021/11/15 00:41:10;;;;;;;127.60;56.50;;;;;;;4.48;86.91;101934.92;1691465;84;21367;-80
2021/11/15 00:43:36;;;;;;;113.52;51.75;;;;;;;4.49;86.91;101935.77;1692479;84;21570;-80
2021/11/15 00:46:02;;;;;;;115.47;53.85;;;;;;;4.50;86.95;101940.12;1692191;84;21026;-79
2021/11/15 00:48:28;;;;;;;117.72;54.63;;;;;;;4.50;86.94;101936.98;1691187;83;21061;-80
2021/11/15 00:50:54;;;;;;;111.90;51.30;;;;;;;4.51;86.96;101941.33;1708966;83;21515;-81
2021/11/15 00:53:21;;;;;;;108.07;50.48;;;;;;;4.49;86.98;101940.59;1720646;83;21010;-80
2021/11/15 00:55:47;;;;;;;105.87;51.13;;;;;;;4.49;86.99;101945.87;1720866;83;21022;-80
2021/11/15 00:58:13;;;;;;;107.92;50.12;;;;;;;4.50;87.00;101939.63;1720871;83;21039;-80
2021/11/15 01:00:41;;;;;;;102.92;48.13;;;;;;;4.50;87.00;101941.44;1720779;83;21126;-80
2021/11/15 01:03:09;;;;;;;102.55;48.78;;;;;;;4.50;87.01;101938.30;1720689;83;21140;-80
2021/11/15 01:05:36;;;;;;;109.87;49.33;;;;;;;4.51;87.04;101936.52;1720293;83;21058;-80
2021/11/15 01:08:03;;;;;;;100.18;49.23;;;;;;;4.52;87.04;101945.68;1720810;83;21054;-80
2021/11/15 01:10:29;;;;;;;103.72;48.70;;;;;;;4.50;87.03;101948.86;1719369;83;21089;-80
2021/11/15 01:12:55;;;;;;;112.05;49.83;;;;;;;4.50;87.03;101946.22;1720049;83;21050;-80
2021/11/15 01:15:23;;;;;;;108.37;53.40;;;;;;;4.52;87.05;101948.32;1674508;83;21070;-81
2021/11/15 01:17:51;;;;;;;101.12;50.85;;;;;;;4.52;87.05;101950.96;1720622;83;20999;-80
2021/11/15 01:20:20;;;;;;;105.05;49.23;;;;;;;4.52;87.07;101944.36;1707986;83;21550;-81
2021/11/15 01:22:46;;;;;;;107.07;50.17;;;;;;;4.53;87.06;101946.06;1691578;84;21061;-79
2021/11/15 01:25:12;;;;;;;95.32;44.80;;;;;;;4.57;87.10;101948.52;1693501;83;20998;-80
2021/11/15 01:27:39;;;;;;;99.50;48.28;;;;;;;4.54;87.11;101949.06;1707762;83;21125;-80
2021/11/15 01:30:06;;;;;;;100.67;48.28;;;;;;;4.57;87.12;101940.59;1691679;84;21009;-81
2021/11/15 01:32:33;;;;;;;93.60;47.27;;;;;;;4.58;87.12;101939.63;1709419;83;21070;-81
2021/11/15 01:34:59;;;;;;;103.92;48.65;;;;;;;4.58;87.14;101935.66;1720823;83;22399;-81
2021/11/15 01:37:25;;;;;;;96.42;47.88;;;;;;;4.60;87.15;101931.16;1718152;82;21021;-82
2021/11/15 01:39:51;;;;;;;97.20;48.48;;;;;;;4.59;87.15;101928.13;1722459;82;21239;-82
2021/11/15 01:42:17;;;;;;;92.27;44.75;;;;;;;4.60;87.16;101927.19;1693774;83;21041;-81
2021/11/15 01:44:43;;;;;;;87.57;45.43;;;;;;;4.61;87.16;101923.62;1691200;84;21061;-80
2021/11/15 01:47:09;;;;;;;87.80;44.48;;;;;;;4.61;87.18;101935.00;1691313;83;21011;-77
2021/11/15 01:49:35;;;;;;;96.50;46.13;;;;;;;4.61;87.17;101931.55;1663749;84;21125;-80
2021/11/15 01:52:01;;;;;;;94.42;46.48;;;;;;;4.61;87.21;101926.26;1709995;83;21083;-78
2021/11/15 01:54:29;;;;;;;92.02;47.70;;;;;;;4.59;87.18;101932.09;1720566;83;21496;-78
2021/11/15 01:56:55;;;;;;;94.62;46.88;;;;;;;4.59;87.21;101931.63;1720690;83;21023;-78
2021/11/15 01:59:21;;;;;;;97.88;46.42;;;;;;;4.59;87.21;101934.73;1720201;83;21010;-78
2021/11/15 02:01:47;;;;;;;108.40;53.28;;;;;;;4.59;87.21;101936.05;1714113;83;21034;-78
2021/11/15 02:04:13;;;;;;;102.45;50.03;;;;;;;4.59;87.22;101934.73;1695246;83;21146;-78
2021/11/15 02:06:39;;;;;;;99.50;49.73;;;;;;;4.59;87.22;101934.73;1699395;83;21055;-79
2021/11/15 02:09:05;;;;;;;101.70;47.73;;;;;;;4.60;87.25;101932.47;1720803;83;22076;-79
2021/11/15 02:11:32;;;;;;;95.42;45.88;;;;;;;4.57;87.23;101932.20;1720123;83;21069;-79
2021/11/15 02:14:01;;;;;;;90.28;46.70;;;;;;;4.58;87.22;101931.70;1720733;83;21534;-79
2021/11/15 02:16:28;;;;;;;91.95;46.65;;;;;;;4.59;87.25;101935.58;1709920;82;21811;-79
2021/11/15 02:18:54;;;;;;;96.95;48.98;;;;;;;4.59;87.25;101931.63;1691450;84;21046;-79
2021/11/15 02:21:20;;;;;;;87.50;43.63;;;;;;;4.59;87.24;101930.77;1694965;83;20998;-79
2021/11/15 02:23:46;;;;;;;91.22;45.88;;;;;;;4.60;87.25;101929.83;1701444;83;21003;-78
2021/11/15 02:26:15;;;;;;;87.65;46.48;;;;;;;4.58;87.23;101925.09;1720707;83;21054;-78
2021/11/15 02:28:44;;;;;;;86.10;46.73;;;;;;;4.56;87.24;101927.00;1719573;83;21141;-78
2021/11/15 02:31:15;;;;;;;97.37;46.73;;;;;;;4.58;87.27;101929.06;1691894;84;21098;-78
2021/11/15 02:33:41;;;;;;;105.20;49.42;;;;;;;4.56;87.24;101927.84;1691066;84;21059;-79
2021/11/15 02:36:08;;;;;;;95.22;47.00;;;;;;;4.54;87.23;101930.57;1691802;84;21525;-79
2021/11/15 02:38:34;;;;;;;100.02;49.25;;;;;;;4.54;87.22;101929.25;1707492;83;21018;-79
2021/11/15 02:41:00;;;;;;;101.50;51.68;;;;;;;4.56;87.26;101929.64;1719980;83;21390;-79
2021/11/15 02:43:26;;;;;;;103.40;52.05;;;;;;;4.56;87.26;101926.53;1720668;83;21019;-79
2021/11/15 02:45:52;;;;;;;108.50;54.93;;;;;;;4.56;87.25;101930.95;1719503;83;20994;-81
2021/11/15 02:48:23;;;;;;;110.88;61.65;;;;;;;4.56;87.23;101928.31;1720473;83;21452;-81
2021/11/15 02:50:50;;;;;;;103.95;54.83;;;;;;;4.56;87.24;101934.92;1719954;83;21026;-81
2021/11/15 02:53:16;;;;;;;103.17;53.98;;;;;;;4.57;87.24;101927.38;1720355;83;21222;-81
2021/11/15 02:55:45;;;;;;;114.47;62.45;;;;;;;4.58;87.25;101931.70;1694268;83;21017;-81
2021/11/15 02:58:12;;;;;;;77.78;40.88;;;;;;;4.59;87.25;101930.30;1691344;84;21078;-81
2021/11/15 03:00:57;;;;;;;121.00;62.88;;;;;;;4.60;87.28;101929.83;1691750;84;21010;-80
2021/11/15 03:03:24;;;;;;;123.67;63.38;;;;;;;4.61;87.27;101931.55;1691589;84;21082;-81
2021/11/15 03:05:51;;;;;;;107.07;54.83;;;;;;;4.60;87.26;101929.83;1691781;84;21921;-79
2021/11/15 03:08:18;;;;;;;97.67;49.23;;;;;;;4.57;87.25;101927.38;1691744;83;21014;-78
2021/11/15 03:10:45;;;;;;;96.92;52.17;;;;;;;4.53;87.24;101930.22;1708556;83;21062;-78
2021/11/15 03:13:13;;;;;;;101.58;51.50;;;;;;;4.50;87.22;101935.66;1691699;84;21030;-78
2021/11/15 03:15:44;;;;;;;127.62;67.17;;;;;;;4.49;87.24;101926.06;1708554;83;21022;-78
2021/11/15 03:18:20;;;;;;;133.40;71.87;;;;;;;4.48;87.26;101932.74;1691830;84;21149;-78
2021/11/15 03:20:49;;;;;;;119.35;62.67;;;;;;;4.43;87.25;101934.33;1665122;84;21074;-78
2021/11/15 03:23:19;;;;;;;124.67;68.30;;;;;;;4.40;87.22;101926.59;1691952;84;21114;-78
2021/11/15 03:25:46;;;;;;;115.85;58.90;;;;;;;4.40;87.24;101931.87;1691850;84;21025;-78
2021/11/15 03:28:14;;;;;;;109.27;56.30;;;;;;;4.38;87.24;101936.42;1691666;84;21118;-78
2021/11/15 03:30:40;;;;;;;104.40;52.85;;;;;;;4.39;87.25;101936.81;1720094;83;22002;-78
2021/11/15 03:33:07;;;;;;;90.50;47.10;;;;;;;4.39;87.25;101941.23;1715948;83;20999;-78
2021/11/15 03:35:34;;;;;;;82.15;43.92;;;;;;;4.36;87.27;101934.33;1664426;84;21033;-78
2021/11/15 03:38:00;;;;;;;79.60;41.80;;;;;;;4.36;87.29;101934.83;1691689;84;21002;-78
2021/11/15 03:40:26;;;;;;;82.65;42.60;;;;;;;4.33;87.27;101935.84;1691617;84;21058;-78
2021/11/15 03:42:58;;;;;;;79.07;42.15;;;;;;;4.31;87.27;101940.84;1691221;83;21703;-78
2021/11/15 03:45:25;;;;;;;85.80;41.98;;;;;;;4.29;87.29;101944.88;1691274;84;21124;-78
2021/11/15 03:47:51;;;;;;;81.45;44.13;;;;;;;4.29;87.28;101951.48;1692573;82;21037;-78
2021/11/15 03:50:17;;;;;;;71.75;40.48;;;;;;;4.27;87.28;101950.73;1692553;84;21062;-78
2021/11/15 03:52:44;;;;;;;80.57;43.08;;;;;;;4.29;87.32;101958.08;1692733;84;21030;-78
2021/11/15 03:55:12;;;;;;;76.10;41.05;;;;;;;4.29;87.33;101953.30;1692360;84;21084;-81
2021/11/15 03:57:39;;;;;;;69.03;38.53;;;;;;;4.28;87.32;101953.77;1693140;83;21037;-79
2021/11/15 04:00:08;;;;;;;66.25;38.50;;;;;;;4.26;87.31;101950.81;1692236;84;21521;-79
2021/11/15 04:02:35;;;;;;;67.30;38.33;;;;;;;4.23;87.39;101941.29;1714493;83;21070;-79
2021/11/15 04:05:04;;;;;;;75.15;38.42;;;;;;;4.23;87.39;101941.29;1721558;83;21934;-79
2021/11/15 04:07:36;;;;;;;72.00;39.63;;;;;;;4.23;87.37;101950.53;1721300;83;21150;-79
2021/11/15 04:10:04;;;;;;;70.50;39.35;;;;;;;4.21;87.37;101947.61;1721204;83;21006;-79
2021/11/15 04:12:30;;;;;;;77.45;43.98;;;;;;;4.19;87.37;101945.05;1721349;82;21006;-79
2021/11/15 04:14:56;;;;;;;78.87;42.90;;;;;;;4.20;87.38;101948.08;1721292;83;21065;-78
2021/11/15 04:17:23;;;;;;;84.47;46.30;;;;;;;4.21;87.41;101941.02;1699552;83;21025;-79
2021/11/15 04:19:51;;;;;;;83.87;45.85;;;;;;;4.22;87.41;101944.05;1692676;84;21487;-79
2021/11/15 04:22:17;;;;;;;89.00;48.35;;;;;;;4.21;87.43;101947.15;1692943;83;21090;-79
2021/11/15 04:24:43;;;;;;;78.85;45.63;;;;;;;4.21;87.46;101947.15;1692478;84;21062;-79
2021/11/15 04:27:09;;;;;;;74.10;40.25;;;;;;;4.20;87.45;101945.44;1692564;84;20987;-79
2021/11/15 04:29:35;;;;;;;77.97;41.15;;;;;;;4.19;87.46;101941.09;1710196;83;21026;-79
2021/11/15 04:32:04;;;;;;;80.35;40.48;;;;;;;4.19;87.47;101937.59;1721508;82;21666;-79
2021/11/15 04:34:30;;;;;;;70.08;37.05;;;;;;;4.19;87.48;101935.81;1720739;83;21565;-79
2021/11/15 04:36:56;;;;;;;71.75;37.65;;;;;;;4.18;87.51;101936.77;1721354;82;21086;-79
2021/11/15 04:39:22;;;;;;;65.47;36.40;;;;;;;4.17;87.50;101935.06;1721557;82;20899;-79
2021/11/15 04:41:48;;;;;;;60.12;31.30;;;;;;;4.17;87.52;101936.38;1720830;83;21053;-79
2021/11/15 04:44:14;;;;;;;61.42;31.75;;;;;;;4.15;87.52;101936.93;1720740;82;21091;-79
2021/11/15 04:46:40;;;;;;;61.85;30.80;;;;;;;4.11;87.52;101933.27;1711845;83;21593;-79
2021/11/15 04:49:06;;;;;;;56.10;29.40;;;;;;;4.10;87.51;101937.69;1695522;83;21045;-79
2021/11/15 04:51:32;;;;;;;57.20;31.02;;;;;;;4.10;87.55;101939.48;1725921;83;21046;-78
2021/11/15 04:53:58;;;;;;;59.70;32.00;;;;;;;4.09;87.57;101937.30;1725998;83;21041;-78
2021/11/15 04:56:25;;;;;;;54.65;30.95;;;;;;;4.08;87.55;101942.22;1726179;83;21143;-78
2021/11/15 04:58:51;;;;;;;62.80;30.80;;;;;;;4.08;87.58;101939.59;1725814;83;21050;-78
2021/11/15 05:01:17;;;;;;;61.85;33.25;;;;;;;4.08;87.59;101940.05;1726238;83;20981;-78
2021/11/15 05:03:43;;;;;;;61.65;31.60;;;;;;;4.05;87.60;101941.05;1725614;83;21046;-78
2021/11/15 05:06:09;;;;;;;62.62;35.55;;;;;;;4.05;87.62;101941.05;1725212;83;21022;-78
2021/11/15 05:08:35;;;;;;;56.73;31.80;;;;;;;4.05;87.61;101935.78;1726052;83;21463;-78
2021/11/15 05:11:01;;;;;;;60.92;33.05;;;;;;;4.08;87.63;101939.59;1725896;83;21673;-78
2021/11/15 05:13:27;;;;;;;57.83;32.93;;;;;;;4.07;87.66;101933.92;1724032;83;21010;-79
2021/11/15 05:15:53;;;;;;;57.62;29.98;;;;;;;4.06;87.66;101935.31;1699792;83;21110;-80
2021/11/15 05:18:19;;;;;;;67.05;32.42;;;;;;;4.08;87.68;101940.91;1725987;82;21128;-79
2021/11/15 05:20:45;;;;;;;73.28;35.05;;;;;;;4.09;87.68;101939.94;1725800;83;21139;-80
2021/11/15 05:23:11;;;;;;;70.20;36.08;;;;;;;4.09;87.68;101945.22;1726058;83;21065;-78
2021/11/15 05:25:37;;;;;;;74.80;39.13;;;;;;;4.12;87.69;101943.71;1713851;83;21077;-79
2021/11/15 05:28:04;;;;;;;65.60;33.65;;;;;;;4.13;87.69;101948.06;1708240;83;21078;-79
2021/11/15 05:30:30;;;;;;;66.05;34.08;;;;;;;4.10;87.71;101941.65;1697687;84;21492;-80
2021/11/15 05:32:56;;;;;;;68.52;37.67;;;;;;;4.05;87.71;101938.41;1697754;84;21179;-81
2021/11/15 05:35:23;;;;;;;67.27;37.60;;;;;;;4.06;87.73;101942.77;1697577;84;21042;-80
2021/11/15 05:37:51;;;;;;;68.72;35.80;;;;;;;4.07;87.75;101934.38;1721417;83;21057;-80
2021/11/15 05:40:17;;;;;;;71.57;38.15;;;;;;;4.04;87.75;101936.73;1713540;83;21018;-79
2021/11/15 05:42:43;;;;;;;63.65;34.60;;;;;;;4.02;87.73;101943.88;1712853;83;21046;-79
2021/11/15 05:45:10;;;;;;;62.85;31.00;;;;;;;4.00;87.75;101944.45;1726930;83;21133;-79
2021/11/15 05:47:36;;;;;;;58.25;31.20;;;;;;;3.98;87.77;101934.44;1726493;83;21003;-79
2021/11/15 05:50:04;;;;;;;62.65;30.57;;;;;;;3.99;87.76;101941.42;1726762;83;21029;-78
2021/11/15 05:52:30;;;;;;;57.88;32.15;;;;;;;3.99;87.78;101945.39;1726836;81;21850;-79
2021/11/15 05:54:56;;;;;;;61.60;32.00;;;;;;;3.98;87.78;101942.36;1726827;83;21616;-79
2021/11/15 05:57:22;;;;;;;60.80;32.80;;;;;;;3.99;87.81;101946.70;1726662;83;22046;-79
2021/11/15 05:59:48;;;;;;;61.35;33.23;;;;;;;3.98;87.80;101943.67;1726925;83;21030;-79
2021/11/15 06:02:15;;;;;;;65.97;39.35;;;;;;;4.01;87.82;101940.39;1726999;83;21060;-79
2021/11/15 06:04:41;;;;;;;70.80;42.65;;;;;;;4.00;87.83;101947.09;1727100;83;21015;-79
2021/11/15 06:07:07;;;;;;;79.77;48.33;;;;;;;3.99;87.83;101949.34;1703197;83;21022;-79
2021/11/15 06:09:33;;;;;;;67.78;38.53;;;;;;;3.98;87.83;101950.27;1697601;84;21144;-79
2021/11/15 06:11:59;;;;;;;67.03;37.33;;;;;;;3.96;87.82;101953.02;1697728;84;21027;-78
2021/11/15 06:14:25;;;;;;;69.42;36.77;;;;;;;3.96;87.84;101956.13;1697663;84;21029;-78
2021/11/15 06:16:51;;;;;;;77.95;35.90;;;;;;;3.94;87.85;101954.88;1697745;84;21062;-79
2021/11/15 06:19:17;;;;;;;67.78;35.68;;;;;;;3.95;87.86;101958.38;1697956;84;21006;-79
2021/11/15 06:21:43;;;;;;;72.75;37.40;;;;;;;3.95;87.85;101963.66;1699697;83;21780;-79
2021/11/15 06:24:09;;;;;;;69.70;37.78;;;;;;;3.95;87.86;101964.97;1710467;83;21066;-79
2021/11/15 06:26:35;;;;;;;77.62;38.23;;;;;;;3.94;87.87;101964.62;1722530;83;21006;-79
2021/11/15 06:29:01;;;;;;;64.42;36.23;;;;;;;3.93;87.86;101962.91;1698509;83;21006;-79
2021/11/15 06:31:27;;;;;;;75.50;39.65;;;;;;;3.93;87.86;101966.40;1722139;83;21010;-79
2021/11/15 06:33:53;;;;;;;65.95;36.00;;;;;;;3.92;87.88;101959.88;1720381;83;21129;-79
2021/11/15 06:36:25;;;;;;;74.50;38.08;;;;;;;3.90;87.86;101956.49;1708215;83;21475;-79
2021/11/15 06:38:50;;;;;;;70.45;36.95;;;;;;;3.91;87.87;101967.41;1704626;83;21506;-78
2021/11/15 06:41:16;;;;;;;70.30;36.23;;;;;;;3.92;87.88;101965.16;1702578;83;21062;-79
2021/11/15 06:43:42;;;;;;;72.72;36.25;;;;;;;3.92;87.89;101967.80;1726749;83;21022;-79
2021/11/15 06:46:08;;;;;;;68.65;36.25;;;;;;;3.92;87.90;101970.44;1726939;83;21032;-79
2021/11/15 06:48:41;;;;;;;75.05;36.77;;;;;;;3.93;87.90;101969.04;1726697;83;20991;-79
2021/11/15 06:51:02;;;;;;;73.85;37.08;;;;;;;3.96;87.91;101975.92;1724897;83;21082;-79
2021/11/15 06:53:30;;;;;;;71.25;37.05;;;;;;;3.96;87.93;101971.96;1711166;83;21011;-79
2021/11/15 06:55:57;;;;;;;64.92;34.92;;;;;;;3.96;87.91;101973.28;1722593;83;21057;-79
2021/11/15 06:58:25;;;;;;;64.62;35.17;;;;;;;3.97;87.93;101973.67;1726963;83;21113;-79
2021/11/15 07:00:51;;;;;;;69.03;34.55;;;;;;;3.99;87.93;101978.38;1726557;83;21011;-79
2021/11/15 07:03:17;;;;;;;67.55;36.68;;;;;;;3.98;87.93;101967.43;1727025;81;20998;-79
2021/11/15 07:05:43;;;;;;;67.55;35.10;;;;;;;3.99;87.95;101973.09;1701707;83;21015;-79
2021/11/15 07:08:09;;;;;;;66.97;34.75;;;;;;;3.99;87.94;101969.99;1698042;84;20931;-79
2021/11/15 07:10:36;;;;;;;65.45;36.35;;;;;;;4.00;87.92;101969.53;1698051;84;22232;-79
2021/11/15 07:13:03;;;;;;;64.25;36.08;;;;;;;4.01;87.94;101973.88;1698023;84;20995;-79
2021/11/15 07:15:29;;;;;;;60.63;34.18;;;;;;;4.03;87.94;101969.34;1697755;84;21062;-79
2021/11/15 07:17:55;;;;;;;77.50;39.25;;;;;;;4.01;87.95;101971.23;1699535;83;21014;-79
2021/11/15 07:20:21;;;;;;;73.67;38.80;;;;;;;4.01;87.96;101971.23;1698126;83;21054;-79
2021/11/15 07:22:48;;;;;;;71.62;36.63;;;;;;;3.99;87.95;101968.67;1698059;84;21131;-79
2021/11/15 07:25:19;;;;;;;63.73;35.40;;;;;;;4.01;87.94;101967.28;1697832;84;22201;-79
2021/11/15 07:27:47;;;;;;;69.10;36.03;;;;;;;4.01;87.95;101967.28;1699375;83;21514;-78
2021/11/15 07:30:13;;;;;;;70.57;37.08;;;;;;;4.01;87.95;101965.95;1697528;83;21106;-79
2021/11/15 07:32:39;;;;;;;74.87;37.23;;;;;;;4.01;87.94;101969.92;1693060;83;21094;-79
2021/11/15 07:35:06;;;;;;;74.77;40.88;;;;;;;4.02;87.95;101967.64;1693351;84;21131;-79
2021/11/15 07:37:32;;;;;;;71.92;37.90;;;;;;;4.05;87.95;101966.63;1693462;84;21077;-79
2021/11/15 07:39:59;;;;;;;66.53;35.92;;;;;;;4.04;87.95;101973.70;1693028;83;21050;-79
2021/11/15 07:42:25;;;;;;;65.67;36.00;;;;;;;4.03;87.92;101971.98;1693898;83;21102;-79
2021/11/15 07:44:51;;;;;;;69.85;35.40;;;;;;;4.05;87.95;101979.33;1681283;85;21057;-79
2021/11/15 07:47:17;;;;;;;64.45;35.30;;;;;;;4.07;87.93;101977.47;1681187;85;21502;-79
2021/11/15 07:49:44;;;;;;;67.45;34.90;;;;;;;4.08;87.94;101980.50;1671813;84;21511;-80
2021/11/15 07:52:11;;;;;;;61.37;34.23;;;;;;;4.09;87.92;101979.53;1670929;84;21066;-79
2021/11/15 07:54:37;;;;;;;64.47;34.45;;;;;;;4.09;87.93;101982.17;1698779;84;21063;-79
2021/11/15 07:57:06;;;;;;;61.25;33.40;;;;;;;4.10;87.96;101990.95;1699091;84;21026;-79
2021/11/15 07:59:32;;;;;;;62.80;32.65;;;;;;;4.11;87.94;101989.55;1698969;83;22110;-79
2021/11/15 08:01:58;;;;;;;59.10;29.92;;;;;;;4.10;87.95;101985.67;1689021;84;21061;-80
2021/11/15 08:04:24;;;;;;;59.48;30.45;;;;;;;4.10;87.91;101991.80;1699059;84;21468;-79
2021/11/15 08:06:50;;;;;;;56.23;31.15;;;;;;;4.09;87.91;101994.05;1698633;84;20998;-79
2021/11/15 08:09:16;;;;;;;56.80;29.63;;;;;;;4.09;87.92;101995.38;1696585;84;21070;-78
2021/11/15 08:11:44;;;;;;;45.92;27.82;;;;;;;4.11;87.89;101989.55;1688896;84;21082;-78
2021/11/15 08:14:11;;;;;;;50.63;28.30;;;;;;;4.11;87.89;101985.59;1671145;85;21059;-79
2021/11/15 08:16:37;;;;;;;54.70;28.30;;;;;;;4.09;87.89;101982.17;1654438;84;21023;-78
2021/11/15 08:19:03;;;;;;;53.10;28.02;;;;;;;4.10;87.87;101983.89;1687741;84;21041;-78
2021/11/15 08:21:29;;;;;;;56.40;29.45;;;;;;;4.09;87.87;101984.81;1681665;84;20975;-78
2021/11/15 08:23:55;;;;;;;54.70;30.45;;;;;;;4.10;87.86;101990.48;1693464;84;21074;-78
2021/11/15 08:26:43;;;;;;;54.05;30.90;;;;;;;4.10;87.87;101989.16;1699228;84;21052;-78
2021/11/15 08:29:11;;;;;;;56.37;31.42;;;;;;;4.13;87.85;101991.62;1688521;84;21090;-79
2021/11/15 08:31:38;;;;;;;59.45;31.87;;;;;;;4.13;87.84;101978.42;1699139;84;21022;-80
2021/11/15 08:34:05;;;;;;;60.98;34.92;;;;;;;4.15;87.82;101985.77;1685912;84;21083;-80
2021/11/15 08:36:31;;;;;;;60.15;32.55;;;;;;;4.14;87.80;101978.81;1671069;85;21112;-80
2021/11/15 08:39:06;;;;;;;71.70;37.58;;;;;;;4.15;87.80;101987.09;1670819;85;21079;-79
2021/11/15 08:41:36;;;;;;;68.07;36.55;;;;;;;4.14;87.78;101971.36;1670917;84;21049;-79
2021/11/15 08:44:05;;;;;;;321.05;174.07;;;;;;;4.15;87.77;101973.06;1671679;84;21062;-80
2021/11/15 08:46:31;;;;;;;149.43;87.67;;;;;;;4.17;87.78;101970.70;1683057;83;21045;-79
2021/11/15 08:48:59;;;;;;;75.47;40.40;;;;;;;4.17;87.75;101968.06;1688302;83;21257;-79
2021/11/15 08:51:25;;;;;;;299.12;181.43;;;;;;;4.18;87.77;101976.37;1688912;84;21578;-79
2021/11/15 08:53:52;;;;;;;115.08;65.25;;;;;;;4.21;87.75;101968.73;1676290;82;21045;-79
2021/11/15 08:56:19;;;;;;;63.42;34.95;;;;;;;4.23;87.73;101979.58;1682494;84;21080;-79
2021/11/15 08:58:45;;;;;;;66.55;37.13;;;;;;;4.24;87.72;101978.64;1677212;84;21068;-80
2021/11/15 09:01:12;;;;;;;60.35;33.60;;;;;;;4.25;87.70;101977.72;1682793;84;21493;-80
2021/11/15 09:03:39;;;;;;;66.47;37.28;;;;;;;4.25;87.69;101984.78;1679563;84;21089;-80
2021/11/15 09:06:07;;;;;;;118.80;65.32;;;;;;;4.27;87.69;101982.89;1681155;84;21508;-80
2021/11/15 09:08:35;;;;;;;74.77;38.78;;;;;;;4.27;87.66;101974.97;1693212;84;22210;-79
2021/11/15 09:11:02;;;;;;;68.57;36.15;;;;;;;4.27;87.65;101983.74;1680661;84;21112;-81
2021/11/15 09:13:28;;;;;;;68.75;37.50;;;;;;;4.28;87.64;101984.59;1678926;84;21677;-80
2021/11/15 09:15:54;;;;;;;69.82;37.10;;;;;;;4.28;87.65;101984.59;1675761;84;21514;-80
2021/11/15 09:18:20;;;;;;;75.42;42.23;;;;;;;4.30;87.65;101982.70;1685242;84;21042;-79
2021/11/15 09:20:46;;;;;;;71.82;36.42;;;;;;;4.31;87.62;101986.58;1687393;84;21013;-80
2021/11/15 09:23:12;;;;;;;76.33;45.05;;;;;;;4.34;87.60;101982.44;1681320;83;21068;-80
2021/11/15 09:25:40;;;;;;;72.35;37.90;;;;;;;4.35;87.59;101984.14;1680645;84;21083;-80
2021/11/15 09:28:06;;;;;;;70.20;36.25;;;;;;;4.35;87.57;101984.14;1681950;84;21527;-79
2021/11/15 09:30:32;;;;;;;72.92;38.50;;;;;;;4.37;87.56;101982.72;1692910;84;21718;-82
2021/11/15 09:32:59;;;;;;;80.35;39.25;;;;;;;4.35;87.55;101980.19;1672409;84;20961;-80
2021/11/15 09:35:26;;;;;;;72.00;37.13;;;;;;;4.33;87.56;101982.05;1675437;84;21033;-80
2021/11/15 09:37:52;;;;;;;80.62;41.50;;;;;;;4.33;87.53;101991.76;1686806;84;21898;-79
2021/11/15 09:40:18;;;;;;;82.60;43.28;;;;;;;4.36;87.54;101983.18;1684470;84;21042;-78
2021/11/15 09:42:44;;;;;;;68.92;37.53;;;;;;;4.38;87.51;101989.24;1683276;84;21082;-79
2021/11/15 09:45:10;;;;;;;74.45;39.40;;;;;;;4.39;87.50;101986.98;1671347;84;21008;-78
2021/11/15 09:47:40;;;;;;;70.03;38.58;;;;;;;4.38;87.49;101983.96;1679181;84;21092;-79
2021/11/15 09:50:09;;;;;;;;;;;;;;;4.37;87.48;101980.92;1682928;84;21591;-79
2021/11/15 09:52:35;;;;;;;94.75;55.28;;;;;;;4.40;87.46;101975.92;1670045;84;20463;-78
2021/11/15 09:55:03;;;;;;;193.02;77.22;;;;;;;4.42;87.44;101974.92;1674486;84;21002;-79
2021/11/15 09:57:34;;;;;;;127.70;56.70;;;;;;;4.43;87.45;101971.31;1688213;84;21598;-79
2021/11/15 10:00:00;;;;;;;86.53;42.45;;;;;;;4.47;87.43;101972.83;1680613;84;21074;-79
2021/11/15 10:02:26;;;;;;;134.47;63.65;;;;;;;4.48;87.42;101970.58;1684449;84;21195;-79
2021/11/15 10:04:52;;;;;;;83.03;42.88;;;;;;;4.48;87.41;101975.86;1685185;84;21573;-79
2021/11/15 10:07:37;;;;;;;78.40;41.77;;;;;;;4.51;87.39;101974.34;1686394;84;21552;-79
2021/11/15 10:10:34;;;;;;;107.72;51.95;;;;;;;4.50;87.38;101969.17;1686732;84;21851;-79
2021/11/15 10:13:20;;;;;;;84.05;42.35;;;;;;;4.51;87.35;101971.70;1689402;84;21077;-79
2021/11/15 10:16:03;;;;;;;88.07;42.05;;;;;;;4.54;87.37;101966.23;1683236;84;21599;-80
2021/11/15 10:18:35;;;;;;;98.40;49.60;;;;;;;4.58;87.34;101964.26;1680124;84;21140;-80
2021/11/15 10:21:05;;;;;;;89.92;46.18;;;;;;;4.62;87.35;101960.95;1683400;84;21021;-80
2021/11/15 10:24:04;;;;;;;154.75;76.95;;;;;;;4.64;87.33;101965.70;1679973;84;21467;-80
2021/11/15 10:26:39;;;;;;;85.05;43.68;;;;;;;4.67;87.32;101957.58;1687099;84;21082;-80
2021/11/15 10:29:17;;;;;;;95.42;47.17;;;;;;;4.72;87.31;101956.80;1681724;85;21786;-79
2021/11/15 10:31:49;;;;;;;77.82;40.45;;;;;;;4.69;87.28;101958.32;1702635;83;21038;-79
2021/11/15 10:34:29;;;;;;;76.80;41.90;;;;;;;4.67;87.25;101955.79;1705239;83;21099;-79
2021/11/15 10:37:01;;;;;;;;;;;;;;;4.68;87.24;101952.68;1709161;83;21040;-79
2021/11/15 10:39:50;;;;;;;84.87;41.68;;;;;;;4.68;87.22;101958.78;1708269;83;20180;-79
2021/11/15 10:42:27;;;;;;;;;;;;;;;4.69;87.19;101951.25;1683219;85;21845;-79
2021/11/15 10:45:14;;;;;;;76.00;40.60;;;;;;;4.73;87.18;101949.27;1683073;85;38792;-79
2021/11/15 10:47:50;;;;;;;81.15;40.20;;;;;;;4.73;87.14;101940.02;1686279;84;21076;-80
2021/11/15 10:50:32;;;;;;;84.30;40.90;;;;;;;4.79;87.14;101948.87;1671607;84;21611;-80
2021/11/15 10:53:28;;;;;;;76.00;39.70;;;;;;;4.83;87.12;101942.47;1679574;84;21022;-81
2021/11/15 10:56:08;;;;;;;74.25;40.23;;;;;;;4.85;87.09;101948.05;1685335;84;22028;-81
2021/11/15 10:58:44;;;;;;;78.30;41.65;;;;;;;4.87;87.09;101946.62;1698769;84;21006;-80
2021/11/15 11:01:10;;;;;;;76.02;41.75;;;;;;;4.86;87.07;101936.98;1698303;84;21545;-80
2021/11/15 11:03:37;;;;;;;76.02;42.00;;;;;;;4.90;87.05;101943.78;1699310;84;21027;-80
2021/11/15 11:06:08;;;;;;;84.45;42.85;;;;;;;4.93;87.03;101939.62;1699239;84;21050;-80
2021/11/15 11:08:41;;;;;;;87.37;44.42;;;;;;;4.93;87.01;101943.12;1699380;84;21959;-80
2021/11/15 11:11:18;;;;;;;75.15;41.13;;;;;;;4.97;86.98;101942.45;1699247;84;21022;-80
2021/11/15 11:13:56;;;;;;;81.40;43.55;;;;;;;5.02;86.96;101941.23;1697789;84;21049;-80
2021/11/15 11:16:23;;;;;;;78.05;41.92;;;;;;;5.08;86.94;101941.78;1695031;83;21021;-80
2021/11/15 11:18:55;;;;;;;78.40;40.90;;;;;;;5.10;86.92;101943.41;1676877;84;21078;-80
2021/11/15 11:26:37;;;;;;;71.80;38.85;;;;;;;5.22;86.86;101939.96;1689038;84;21045;-81